Terminal Aerodrome Forecast
Issued by NWS

Home | Current Version | Previous Version | Text Only | Print | Product List | Glossary On
Versions: 1 2 3 4 5 6 7 8 9 10 11 12 13 14
268
FTAK31 PAJN 291751
TAFAWG
TAF
PAWG 291751Z 2918/3018 10009KT P6SM VCSH SCT030 BKN050
     FM300300 12007KT P6SM SCT030 BKN050
     FM300900 12009KT P6SM OVC050
     FM301500 12012G22KT P6SM -RA OVC040
     FM301700 12015G28KT P6SM -RA SCT020 OVC035
      AMD LTD TO CLD VIS AND WIND 3006/3015=

USA.gov is the U.S. government's official web portal to all federal, state and local government web resources and services.